Time;durP1;ratioP1;P1;durP2;ratioP2;P2;SDS_P1;SDS_P2;PMS_P1;PMS_P2;Temp;Humidity;BMP_temperature;BMP_pressure;BME280_temperature;BME280_humidity;BME280_pressure;Samples;Min_cycle;Max_cycle;Signal;HPM_P1;HPM_P2
2022/04/19 00:01:00;;;;;;;9.77;6.95;;;;;;;11.86;51.70;101397.47;5056153;28;20025;-62
2022/04/19 00:03:26;;;;;;;10.68;7.75;;;;;;;11.82;51.91;101393.88;5056130;28;20029;-62
2022/04/19 00:05:52;;;;;;;9.93;7.32;;;;;;;11.79;51.99;101389.41;5056405;28;20025;-62
2022/04/19 00:08:17;;;;;;;9.93;6.90;;;;;;;11.83;52.43;101390.38;5055999;28;20035;-62
2022/04/19 00:10:43;;;;;;;12.80;7.68;;;;;;;11.86;52.19;101387.78;5055452;28;20023;-63
2022/04/19 00:13:11;;;;;;;11.93;7.45;;;;;;;11.90;51.96;101388.69;5055113;28;20033;-62
2022/04/19 00:15:38;;;;;;;11.20;7.15;;;;;;;11.85;52.38;101379.81;5055202;28;20033;-62
2022/04/19 00:18:06;;;;;;;10.15;7.30;;;;;;;11.84;52.21;101385.97;5055104;28;20029;-62
2022/04/19 00:20:33;;;;;;;10.25;7.15;;;;;;;11.81;52.12;101384.13;5055834;28;20025;-62
2022/04/19 00:22:59;;;;;;;9.32;6.72;;;;;;;11.80;51.86;101387.66;5055799;28;20054;-62
2022/04/19 00:25:24;;;;;;;11.75;7.45;;;;;;;11.74;52.76;101385.81;5055712;28;20021;-62
2022/04/19 00:27:50;;;;;;;10.10;7.45;;;;;;;11.82;51.82;101388.56;5055605;28;20021;-62
2022/04/19 00:30:16;;;;;;;9.57;7.50;;;;;;;11.77;51.66;101387.59;5055187;28;20387;-63
2022/04/19 00:32:42;;;;;;;11.70;7.50;;;;;;;11.77;51.92;101390.25;5055466;28;20029;-62
2022/04/19 00:35:10;;;;;;;11.10;7.78;;;;;;;11.49;53.31;101384.53;5055458;28;20032;-62
2022/04/19 00:37:37;;;;;;;11.95;8.07;;;;;;;11.28;53.14;101366.56;5055480;28;20032;-62
2022/04/19 00:40:07;;;;;;;11.38;7.82;;;;;;;11.25;53.35;101373.56;5054812;28;20029;-62
2022/04/19 00:42:33;;;;;;;10.10;7.55;;;;;;;11.18;54.02;101375.22;5055338;28;20470;-62
2022/04/19 00:45:05;;;;;;;10.02;7.63;;;;;;;11.20;53.87;101372.59;5055245;28;20090;-62
2022/04/19 00:47:34;;;;;;;12.93;7.55;;;;;;;11.20;53.74;101378.78;5055166;28;20549;-62
2022/04/19 00:50:01;;;;;;;12.48;7.93;;;;;;;11.18;53.34;101372.59;5055340;28;20083;-62
2022/04/19 00:52:28;;;;;;;11.82;7.97;;;;;;;11.13;53.71;101365.41;5055138;28;20029;-63
2022/04/19 00:54:54;;;;;;;13.52;8.00;;;;;;;11.20;53.61;101377.88;5055211;28;20047;-62
2022/04/19 00:57:19;;;;;;;13.68;7.95;;;;;;;11.11;53.94;101369.81;5055076;28;20470;-62
2022/04/19 00:59:46;;;;;;;12.70;8.23;;;;;;;11.16;53.93;101370.75;5054907;28;20029;-62
2022/04/19 01:02:12;;;;;;;11.32;8.30;;;;;;;11.13;53.67;101376.88;5054913;28;20470;-62
2022/04/19 01:04:37;;;;;;;12.50;8.88;;;;;;;11.13;53.68;101376.00;5054930;28;20035;-62
2022/04/19 01:07:03;;;;;;;12.90;9.55;;;;;;;11.12;53.33;101380.41;5054937;28;20024;-62
2022/04/19 01:09:29;;;;;;;11.98;8.75;;;;;;;11.06;53.42;101380.31;5054776;28;20060;-62
2022/04/19 01:14:39;;;;;;;14.18;9.23;;;;;;;11.11;53.29;101377.75;5055079;28;20075;-62
2022/04/19 01:17:08;;;;;;;12.15;8.80;;;;;;;11.02;53.39;101379.34;5054727;28;20112;-62
2022/04/19 01:19:40;;;;;;;15.65;9.15;;;;;;;10.95;53.48;101374.81;5054705;28;20028;-61
2022/04/19 01:22:06;;;;;;;11.90;8.68;;;;;;;10.94;53.46;101377.44;5054615;28;20364;-63
2022/04/19 01:24:32;;;;;;;12.15;8.70;;;;;;;10.97;53.29;101377.50;5054841;28;20029;-62
2022/04/19 01:26:58;;;;;;;11.20;9.20;;;;;;;10.94;53.29;101372.16;5054595;28;20425;-63
2022/04/19 01:29:24;;;;;;;12.35;8.65;;;;;;;10.90;53.41;101368.56;5054393;28;20441;-63
2022/04/19 01:31:51;;;;;;;13.43;9.35;;;;;;;10.88;52.97;101370.31;5052017;28;20069;-62
2022/04/19 01:34:20;;;;;;;15.40;9.38;;;;;;;10.84;53.02;101359.66;5054516;28;20115;-62
2022/04/19 01:36:45;;;;;;;15.55;9.52;;;;;;;10.76;53.57;101364.78;5054268;28;20032;-62
2022/04/19 01:39:11;;;;;;;15.45;9.85;;;;;;;10.68;54.13;101369.03;5054254;28;20060;-63
2022/04/19 01:41:38;;;;;;;12.13;9.30;;;;;;;10.61;54.34;101361.84;5053999;28;20482;-62
2022/04/19 01:44:05;;;;;;;13.45;9.52;;;;;;;10.52;54.30;101365.19;5054203;28;20017;-62
2022/04/19 01:46:34;;;;;;;12.93;9.52;;;;;;;10.48;54.33;101361.59;5054009;28;20095;-62
2022/04/19 01:49:03;;;;;;;12.80;9.75;;;;;;;10.42;54.49;101358.88;5054131;28;20096;-62
2022/04/19 01:51:29;;;;;;;14.13;9.57;;;;;;;10.42;54.63;101348.28;5053586;28;20033;-62
2022/04/19 01:53:55;;;;;;;13.93;10.18;;;;;;;10.46;54.50;101355.41;5054148;28;20085;-62
2022/04/19 01:56:21;;;;;;;15.30;10.63;;;;;;;10.45;54.50;101353.66;5053870;28;20029;-62
2022/04/19 01:58:48;;;;;;;19.35;11.25;;;;;;;10.49;54.16;101355.50;5054004;28;20382;-62
2022/04/19 02:01:13;;;;;;;18.00;11.55;;;;;;;10.50;53.67;101345.81;5053939;28;20025;-62
2022/04/19 02:03:39;;;;;;;16.90;11.32;;;;;;;10.47;53.79;101348.38;5053845;28;20363;-62
2022/04/19 02:06:08;;;;;;;14.25;10.70;;;;;;;10.41;53.67;101349.16;5053718;28;20031;-62
2022/04/19 02:08:34;;;;;;;16.88;10.75;;;;;;;10.40;53.98;101354.41;5053864;28;20437;-62
2022/04/19 02:11:00;;;;;;;13.90;10.50;;;;;;;10.41;54.24;101361.50;5053611;28;20104;-62
2022/04/19 02:13:26;;;;;;;14.05;10.25;;;;;;;10.35;54.02;101354.31;5053625;28;20435;-62
2022/04/19 02:15:52;;;;;;;14.43;11.00;;;;;;;10.29;54.28;101356.84;5053457;28;20074;-62
2022/04/19 02:18:18;;;;;;;15.60;10.43;;;;;;;10.22;54.32;101354.88;5053675;28;20075;-62
2022/04/19 02:20:45;;;;;;;16.27;10.27;;;;;;;10.19;54.66;101345.19;5053406;28;20079;-62
2022/04/19 02:23:13;;;;;;;14.32;10.15;;;;;;;10.19;54.82;101350.47;5053514;28;20032;-63
2022/04/19 02:25:38;;;;;;;13.65;10.65;;;;;;;10.19;55.13;101353.09;5053324;28;20025;-63
2022/04/19 02:28:06;;;;;;;13.60;10.48;;;;;;;10.14;55.05;101354.72;5053579;28;20036;-62
2022/04/19 02:30:32;;;;;;;14.10;10.77;;;;;;;10.03;55.54;101351.00;5053005;28;20128;-62
2022/04/19 02:32:58;;;;;;;14.82;11.00;;;;;;;10.00;55.71;101348.28;5053490;28;20436;-63
2022/04/19 02:35:26;;;;;;;14.10;10.25;;;;;;;9.99;55.50;101343.88;5053255;28;20059;-62
2022/04/19 02:37:53;;;;;;;15.02;10.57;;;;;;;9.97;55.57;101350.84;5053217;28;20029;-62
2022/04/19 02:40:20;;;;;;;13.88;10.15;;;;;;;10.00;55.69;101350.91;5053169;28;20083;-63
2022/04/19 02:42:51;;;;;;;15.10;10.63;;;;;;;10.03;55.59;101348.34;5052931;28;20397;-62
2022/04/19 02:45:19;;;;;;;13.32;10.48;;;;;;;10.02;55.69;101341.25;5053083;28;20044;-62
2022/04/19 02:48:01;;;;;;;13.65;10.50;;;;;;;10.07;55.71;101338.75;5035218;28;20021;-62
2022/04/19 02:50:27;;;;;;;16.45;10.40;;;;;;;10.12;55.37;101343.25;5053108;28;20063;-62
2022/04/19 02:52:52;;;;;;;17.48;10.38;;;;;;;10.06;55.36;101335.19;5052908;28;20466;-64
2022/04/19 02:55:18;;;;;;;12.93;10.05;;;;;;;10.02;55.66;101339.53;5052970;28;20037;-62
2022/04/19 02:57:43;;;;;;;14.82;10.70;;;;;;;10.04;55.48;101337.81;5052949;28;20036;-62
2022/04/19 03:00:10;;;;;;;13.57;10.50;;;;;;;10.04;54.99;101339.56;5052929;28;20021;-62
2022/04/19 03:02:35;;;;;;;15.38;9.88;;;;;;;10.03;55.48;101340.44;5052882;28;20032;-62
2022/04/19 03:05:00;;;;;;;13.50;10.23;;;;;;;9.97;55.58;101338.53;5052747;28;20025;-62
2022/04/19 03:07:26;;;;;;;14.43;10.63;;;;;;;9.93;55.60;101339.31;5052966;28;20021;-62
2022/04/19 03:09:51;;;;;;;13.40;9.65;;;;;;;9.86;56.06;101331.28;5052877;28;20517;-62
2022/04/19 03:12:17;;;;;;;13.23;9.63;;;;;;;9.75;56.17;101333.66;5052921;28;20385;-62
2022/04/19 03:14:42;;;;;;;13.07;10.18;;;;;;;9.66;56.49;101334.34;5053008;28;20021;-62
2022/04/19 03:17:07;;;;;;;13.35;10.75;;;;;;;9.62;56.38;101332.50;5052771;28;20391;-62
2022/04/19 03:19:33;;;;;;;13.90;10.93;;;;;;;9.52;57.50;101335.78;5053139;28;20028;-62
2022/04/19 03:21:59;;;;;;;15.10;10.55;;;;;;;9.47;57.36;101325.13;5052642;28;20513;-62
2022/04/19 03:29:53;;;;;;;17.42;11.20;;;;;;;9.32;57.64;101337.06;5052702;28;20481;-62
2022/04/19 03:32:23;;;;;;;15.20;10.68;;;;;;;9.30;57.72;101328.25;5052651;28;20025;-62
2022/04/19 03:34:50;;;;;;;15.38;11.32;;;;;;;9.32;57.84;101326.53;5052666;28;20098;-62
2022/04/19 03:37:15;;;;;;;13.10;10.23;;;;;;;9.36;57.28;101328.38;5052586;28;20036;-62
2022/04/19 03:39:46;;;;;;;15.45;11.35;;;;;;;9.36;57.54;101325.75;5052603;28;20033;-62
2022/04/19 03:42:11;;;;;;;14.30;10.32;;;;;;;9.37;57.59;101338.94;5052710;28;20060;-62
2022/04/19 03:44:37;;;;;;;13.52;10.20;;;;;;;9.37;56.82;101333.69;5052858;28;20068;-62
2022/04/19 03:47:09;;;;;;;16.73;11.32;;;;;;;9.36;57.17;101331.00;5052606;28;20103;-62
2022/04/19 03:49:38;;;;;;;14.73;10.45;;;;;;;9.31;56.92;101328.28;5052607;28;20029;-62
2022/04/19 03:52:05;;;;;;;17.77;11.18;;;;;;;9.35;57.14;101334.50;5052647;28;20473;-62
2022/04/19 03:54:34;;;;;;;14.82;10.90;;;;;;;9.40;56.59;101338.16;5052333;28;20112;-62
2022/04/19 03:57:00;;;;;;;17.02;10.57;;;;;;;9.39;56.73;101331.97;5052456;28;20063;-62
2022/04/19 03:59:25;;;;;;;15.45;10.65;;;;;;;9.40;56.62;101336.41;5034604;28;20068;-62
2022/04/19 04:01:51;;;;;;;13.13;10.57;;;;;;;9.41;57.13;101335.53;5052389;28;20030;-62
2022/04/19 04:04:16;;;;;;;14.32;10.60;;;;;;;9.40;56.98;101331.13;5052513;28;20013;-62
2022/04/19 04:06:42;;;;;;;14.68;11.00;;;;;;;9.42;57.16;101333.78;5052171;28;20381;-62
2022/04/19 04:09:07;;;;;;;16.70;10.02;;;;;;;9.38;56.34;101338.13;5052369;28;20053;-62
2022/04/19 04:11:32;;;;;;;13.65;10.43;;;;;;;9.36;56.85;101338.94;5052216;28;20067;-62
2022/04/19 04:13:58;;;;;;;14.80;10.60;;;;;;;9.24;57.52;101335.13;5034452;28;20389;-62
2022/04/19 04:16:24;;;;;;;13.88;10.80;;;;;;;9.16;58.22;101339.31;5054544;28;20021;-62
2022/04/19 04:18:49;;;;;;;15.75;11.50;;;;;;;9.08;58.07;101334.72;5055866;28;20072;-62
2022/04/19 04:21:15;;;;;;;15.40;10.95;;;;;;;9.08;58.10;101337.34;5055690;28;20094;-62
2022/04/19 04:23:41;;;;;;;15.70;11.02;;;;;;;9.05;58.71;101334.66;5055732;28;20021;-62
2022/04/19 04:26:06;;;;;;;14.10;10.70;;;;;;;8.98;57.87;101338.88;5055910;28;20104;-62
2022/04/19 04:28:31;;;;;;;13.65;10.60;;;;;;;8.96;58.09;101349.41;5055644;28;20389;-62
2022/04/19 04:31:02;;;;;;;13.82;10.05;;;;;;;8.97;58.39;101342.38;5055175;28;20429;-62
2022/04/19 04:33:29;;;;;;;12.68;9.75;;;;;;;8.91;58.54;101351.03;5054572;28;20043;-62
2022/04/19 04:35:54;;;;;;;15.77;10.02;;;;;;;8.90;58.84;101341.31;5054543;28;20029;-63
2022/04/19 04:38:20;;;;;;;12.98;9.93;;;;;;;8.86;58.86;101347.34;5054806;28;20111;-62
2022/04/19 04:40:45;;;;;;;13.55;10.38;;;;;;;8.75;59.11;101349.72;5054716;28;20043;-62
2022/04/19 04:43:11;;;;;;;15.68;10.13;;;;;;;8.65;59.92;101342.44;5054710;28;20505;-62
2022/04/19 04:45:36;;;;;;;16.67;10.70;;;;;;;8.62;59.20;101345.00;5054404;28;20013;-62
2022/04/19 04:50:46;;;;;;;14.93;10.93;;;;;;;8.57;59.98;101351.00;5054042;28;20043;-62
2022/04/19 04:53:11;;;;;;;15.82;10.57;;;;;;;8.57;60.16;101351.00;5054413;28;20037;-62
2022/04/19 04:55:37;;;;;;;15.55;10.82;;;;;;;8.61;59.33;101355.47;5054436;28;20056;-62
2022/04/19 04:58:02;;;;;;;13.60;10.40;;;;;;;8.65;59.06;101360.88;5054621;28;20029;-62
2022/04/19 05:00:28;;;;;;;20.48;10.57;;;;;;;8.68;58.90;101355.69;5054237;28;20029;-62
2022/04/19 05:02:55;;;;;;;14.20;10.57;;;;;;;8.73;58.91;101353.16;5054276;28;20025;-62
2022/04/19 05:05:21;;;;;;;14.55;10.27;;;;;;;8.82;58.35;101358.66;5054032;28;20020;-62
2022/04/19 05:07:47;;;;;;;15.77;9.93;;;;;;;8.88;59.15;101365.88;5054580;28;20462;-62
2022/04/19 05:10:12;;;;;;;16.05;10.82;;;;;;;8.92;58.66;101357.19;5037673;28;20108;-63
2022/04/19 05:12:38;;;;;;;13.98;10.85;;;;;;;9.01;58.88;101363.56;5053206;28;20028;-63
2022/04/19 05:15:04;;;;;;;16.00;10.52;;;;;;;9.03;58.92;101356.59;5054213;28;20029;-62
2022/04/19 05:17:29;;;;;;;15.45;10.85;;;;;;;9.07;59.15;101357.56;5053931;28;20025;-62
2022/04/19 05:19:56;;;;;;;15.77;10.32;;;;;;;9.16;58.65;101362.16;5053848;28;20055;-62
2022/04/19 05:22:22;;;;;;;14.95;10.70;;;;;;;9.25;57.95;101365.06;5053556;28;20033;-63
2022/04/19 05:24:48;;;;;;;20.13;13.52;;;;;;;9.32;57.19;101356.41;5054081;28;20029;-63
2022/04/19 05:27:14;;;;;;;16.35;10.90;;;;;;;9.51;55.87;101361.28;5053718;28;20040;-63
2022/04/19 05:29:39;;;;;;;15.13;11.02;;;;;;;9.64;55.83;101365.09;5053945;28;20107;-62
2022/04/19 05:32:05;;;;;;;15.68;10.73;;;;;;;9.82;54.67;101359.34;5035501;28;20068;-63
2022/04/19 05:34:31;;;;;;;17.23;10.32;;;;;;;9.99;53.93;101354.44;5053447;28;20036;-63
2022/04/19 05:36:56;;;;;;;19.80;12.30;;;;;;;10.12;53.59;101360.84;5053505;28;20153;-62
2022/04/19 05:39:21;;;;;;;15.98;11.38;;;;;;;10.27;53.01;101356.78;5053651;28;20118;-62
2022/04/19 05:41:47;;;;;;;17.52;10.52;;;;;;;10.43;51.96;101363.28;5053673;28;20040;-62
2022/04/19 05:44:12;;;;;;;17.90;10.80;;;;;;;10.51;51.53;101356.38;5053447;28;20021;-62
2022/04/19 05:46:37;;;;;;;17.10;10.75;;;;;;;10.64;51.12;101360.16;5053546;28;20036;-62
2022/04/19 05:49:06;;;;;;;18.92;11.57;;;;;;;10.83;51.12;101361.38;5052976;28;20502;-63
2022/04/19 05:51:35;;;;;;;19.20;10.13;;;;;;;11.06;51.42;101347.69;5052713;28;20028;-62
2022/04/19 05:54:00;;;;;;;18.15;10.77;;;;;;;11.28;49.95;101360.38;5052524;28;20047;-62
2022/04/19 05:56:26;;;;;;;19.42;11.45;;;;;;;11.47;49.70;101366.84;5052968;28;20393;-62
2022/04/19 05:58:51;;;;;;;17.02;11.40;;;;;;;11.67;49.50;101367.16;5053267;28;20032;-62
2022/04/19 06:01:18;;;;;;;17.48;11.43;;;;;;;11.90;48.67;101367.50;5053319;28;20025;-63
2022/04/19 06:06:27;;;;;;;16.92;11.43;;;;;;;12.28;48.25;101368.00;5053113;28;20090;-62
2022/04/19 06:08:53;;;;;;;18.40;11.20;;;;;;;12.41;47.63;101367.28;5053123;28;20104;-63
2022/04/19 06:11:19;;;;;;;14.95;10.27;;;;;;;12.51;46.73;101376.25;5053010;28;20037;-62
2022/04/19 06:13:45;;;;;;;16.00;11.07;;;;;;;12.72;45.89;101375.59;5053036;28;20356;-63
2022/04/19 06:16:10;;;;;;;18.98;11.65;;;;;;;12.88;45.95;101371.31;5052634;28;20025;-62
2022/04/19 06:18:36;;;;;;;19.80;11.07;;;;;;;13.02;45.49;101375.88;5052963;28;20028;-62
2022/04/19 06:21:04;;;;;;;17.00;11.15;;;;;;;13.16;44.74;101383.06;5052523;28;20049;-63
2022/04/19 06:23:30;;;;;;;16.05;10.85;;;;;;;13.30;44.55;101380.56;5034983;28;20425;-63
2022/04/19 06:25:55;;;;;;;18.60;11.07;;;;;;;13.46;43.99;101379.81;5052836;28;20029;-63
2022/04/19 06:28:20;;;;;;;17.00;11.13;;;;;;;13.59;43.52;101384.34;5052808;28;20048;-63
2022/04/19 06:30:46;;;;;;;24.67;11.65;;;;;;;13.68;43.86;101384.38;5052488;28;20094;-63
2022/04/19 06:33:12;;;;;;;19.00;11.20;;;;;;;13.76;43.17;101377.38;5052647;28;20029;-63
2022/04/19 06:35:37;;;;;;;19.17;11.10;;;;;;;13.87;42.71;101374.75;5052419;28;20028;-63
2022/04/19 06:38:02;;;;;;;19.42;11.45;;;;;;;13.94;42.77;101384.53;5052378;28;20031;-63
2022/04/19 06:40:28;;;;;;;17.95;11.55;;;;;;;14.04;42.60;101383.69;5052572;28;20582;-63
2022/04/19 06:42:57;;;;;;;17.58;11.05;;;;;;;14.19;42.19;101390.88;5052648;28;20032;-62
2022/04/19 06:45:22;;;;;;;19.05;10.85;;;;;;;14.25;41.66;101382.03;5052567;28;20032;-62
2022/04/19 06:47:55;;;;;;;17.50;11.45;;;;;;;14.33;41.79;101380.31;5052360;28;20029;-63
2022/04/19 06:50:21;;;;;;;17.35;10.60;;;;;;;14.35;41.29;101383.88;5052587;28;20024;-62
2022/04/19 06:52:46;;;;;;;18.70;10.98;;;;;;;14.48;41.74;101387.47;5052440;28;20040;-62
2022/04/19 06:55:12;;;;;;;18.65;10.95;;;;;;;14.59;41.10;101382.19;5034476;28;20051;-62
2022/04/19 06:57:39;;;;;;;17.02;10.38;;;;;;;14.67;40.36;101381.31;5052277;28;20021;-62
2022/04/19 07:00:05;;;;;;;18.60;11.00;;;;;;;14.80;39.97;101386.69;5052392;28;20473;-62
2022/04/19 07:02:31;;;;;;;20.98;11.30;;;;;;;14.90;40.12;101388.47;5052059;28;20025;-62
2022/04/19 07:04:56;;;;;;;16.48;10.98;;;;;;;15.01;39.77;101386.72;5050916;28;20402;-62
2022/04/19 07:07:21;;;;;;;17.13;10.77;;;;;;;15.20;40.32;101391.19;5052318;28;20033;-63
2022/04/19 07:09:49;;;;;;;18.75;11.30;;;;;;;15.44;39.34;101394.72;5052216;28;20022;-62
2022/04/19 07:12:14;;;;;;;16.10;10.98;;;;;;;15.63;39.65;101388.50;5052165;28;20021;-63
2022/04/19 07:14:39;;;;;;;16.92;11.13;;;;;;;15.88;38.30;101388.47;5052329;28;20032;-63
2022/04/19 07:17:05;;;;;;;15.90;11.00;;;;;;;16.01;37.68;101390.19;5052669;28;20025;-62
2022/04/19 07:26:37;;;;;;;15.23;10.40;;;;;;;16.12;38.01;101393.72;5052031;28;20520;-63
2022/04/19 07:27:43;;;;;;;19.85;11.77;;;;;;;16.46;37.11;101390.94;5052148;28;20398;-62
2022/04/19 07:30:09;;;;;;;15.20;10.68;;;;;;;16.45;36.52;101389.16;5051728;28;20061;-63
2022/04/19 07:32:34;;;;;;;18.27;11.38;;;;;;;16.54;36.73;101394.47;5051876;28;20029;-63
2022/04/19 07:34:59;;;;;;;20.88;9.82;;;;;;;16.58;36.44;101400.66;5051962;28;20377;-62
2022/04/19 07:37:25;;;;;;;22.35;11.63;;;;;;;16.50;37.95;101408.69;5052074;28;20044;-62
2022/04/19 07:39:50;;;;;;;19.95;11.55;;;;;;;16.66;37.96;101404.16;5051655;28;20099;-62
2022/04/19 07:42:15;;;;;;;15.95;10.88;;;;;;;16.88;37.62;101399.63;5051905;28;20057;-63
2022/04/19 07:44:44;;;;;;;20.23;11.18;;;;;;;17.12;37.32;101401.25;5051947;28;20438;-62
2022/04/19 07:47:09;;;;;;;17.60;10.68;;;;;;;17.33;36.33;101409.09;5051536;28;20040;-63
2022/04/19 07:49:36;;;;;;;16.33;10.13;;;;;;;17.57;35.53;101409.78;5052163;28;20033;-62
2022/04/19 07:52:02;;;;;;;17.00;10.55;;;;;;;17.79;34.81;101400.69;5055190;28;20132;-62
2022/04/19 07:54:27;;;;;;;15.65;10.07;;;;;;;17.97;34.10;101408.50;5055924;28;20063;-63
2022/04/19 07:56:52;;;;;;;15.90;10.40;;;;;;;18.13;33.98;101403.88;5055664;28;20024;-63
2022/04/19 07:59:17;;;;;;;13.98;9.52;;;;;;;18.33;33.54;101402.75;5055635;28;20028;-63
2022/04/19 08:01:43;;;;;;;14.35;9.73;;;;;;;18.46;32.32;101407.94;5055440;28;20343;-62
2022/04/19 08:04:08;;;;;;;17.52;10.02;;;;;;;18.45;32.38;101411.50;5055714;28;20072;-63
2022/04/19 08:06:33;;;;;;;17.25;9.30;;;;;;;18.52;32.49;101412.34;5055601;28;20033;-62
2022/04/19 08:08:59;;;;;;;17.90;9.73;;;;;;;18.61;32.36;101412.19;5055660;28;20123;-63
2022/04/19 08:11:26;;;;;;;16.13;8.75;;;;;;;18.68;31.80;101408.56;5055192;28;20486;-62
2022/04/19 08:13:52;;;;;;;14.90;9.38;;;;;;;18.74;31.98;101399.56;5055343;28;20044;-62
2022/04/19 08:16:17;;;;;;;17.33;9.38;;;;;;;18.94;31.58;101402.84;5055315;28;20396;-63
2022/04/19 08:18:42;;;;;;;14.95;9.25;;;;;;;19.11;31.64;101396.34;5055205;28;20056;-63
2022/04/19 08:21:08;;;;;;;14.20;9.10;;;;;;;19.26;31.22;101398.78;5055351;28;20059;-63
2022/04/19 08:23:33;;;;;;;15.43;9.07;;;;;;;19.49;31.30;101391.25;5055591;28;20443;-63
2022/04/19 08:25:58;;;;;;;15.10;8.18;;;;;;;19.63;29.43;101400.88;5055528;28;20053;-63
2022/04/19 08:28:24;;;;;;;15.30;7.90;;;;;;;19.88;29.84;101390.59;5055237;28;20170;-62
2022/04/19 08:30:49;;;;;;;12.80;8.10;;;;;;;20.07;29.44;101391.97;5054707;28;20395;-62
2022/04/19 08:33:14;;;;;;;13.38;8.38;;;;;;;20.26;29.43;101387.16;5054614;28;20021;-63
2022/04/19 08:35:39;;;;;;;14.07;9.05;;;;;;;20.52;29.78;101375.88;5054914;28;20032;-62
2022/04/19 08:38:06;;;;;;;16.08;9.20;;;;;;;20.78;28.19;101379.78;5055140;28;20029;-63
2022/04/19 08:40:33;;;;;;;16.23;8.70;;;;;;;21.11;28.15;101378.09;5054800;28;20440;-63
2022/04/19 08:42:59;;;;;;;16.48;8.93;;;;;;;21.18;27.89;101377.91;5054901;28;20029;-63
2022/04/19 08:45:26;;;;;;;13.57;8.35;;;;;;;21.26;27.30;101380.41;5054856;28;20033;-63
2022/04/19 08:47:52;;;;;;;13.32;8.45;;;;;;;21.43;27.53;101388.09;5036697;28;20068;-63
2022/04/19 08:50:20;;;;;;;15.00;8.63;;;;;;;21.56;26.62;101384.16;5054520;28;20028;-63
2022/04/19 08:52:46;;;;;;;14.55;8.52;;;;;;;21.61;26.92;101384.03;5054450;28;20038;-63
2022/04/19 08:58:16;;;;;;;14.25;8.55;;;;;;;21.84;27.27;101378.94;5012643;28;20053;-63
2022/04/19 09:00:41;;;;;;;14.38;8.35;;;;;;;22.11;27.06;101382.66;5012242;28;20400;-63
2022/04/19 09:03:07;;;;;;;15.13;8.60;;;;;;;22.12;25.97;101384.44;5031579;28;20032;-63
2022/04/19 09:05:32;;;;;;;13.25;8.85;;;;;;;22.06;25.83;101378.34;5054403;28;20032;-63
2022/04/19 09:07:58;;;;;;;13.48;8.40;;;;;;;22.33;26.20;101379.38;5054361;28;20031;-63
2022/04/19 09:10:34;;;;;;;14.48;8.52;;;;;;;22.55;26.57;101382.28;5054576;28;20056;-62
2022/04/19 09:13:05;;;;;;;13.85;7.20;;;;;;;22.41;25.26;101375.50;5054190;28;20057;-63
2022/04/19 09:15:39;;;;;;;13.93;6.45;;;;;;;22.35;24.43;101373.00;5054250;28;20029;-63
2022/04/19 09:18:11;;;;;;;17.48;6.82;;;;;;;22.45;24.35;101369.13;5054321;28;20327;-63
2022/04/19 09:20:38;;;;;;;11.30;6.28;;;;;;;22.63;24.84;101362.28;5054271;28;20423;-63
2022/04/19 09:23:08;;;;;;;8.48;5.50;;;;;;;22.73;24.78;101357.47;5054307;28;20017;-63
2022/04/19 09:25:35;;;;;;;10.55;5.70;;;;;;;22.79;24.93;101364.50;5054054;28;20025;-63
2022/04/19 09:28:02;;;;;;;10.75;5.18;;;;;;;22.94;23.59;101369.41;5054201;28;20017;-63
2022/04/19 09:30:34;;;;;;;7.50;4.80;;;;;;;23.17;23.80;101366.00;5053855;28;20490;-63
2022/04/19 09:33:19;;;;;;;8.02;4.95;;;;;;;23.29;23.89;101364.66;5053807;28;20041;-62
2022/04/19 09:35:53;;;;;;;9.68;5.03;;;;;;;23.21;23.23;101365.84;5053809;28;20430;-63
2022/04/19 09:38:42;;;;;;;8.68;5.35;;;;;;;22.94;24.24;101350.56;5053708;28;20060;-62
2022/04/19 09:41:09;;;;;;;8.80;5.38;;;;;;;22.84;24.20;101343.66;5054115;28;20083;-63
2022/04/19 09:43:35;;;;;;;7.82;4.97;;;;;;;23.17;24.62;101353.38;5053836;28;20028;-63
2022/04/19 09:46:05;;;;;;;9.57;5.43;;;;;;;23.11;23.29;101345.47;5053679;28;20054;-63
2022/04/19 09:48:35;;;;;;;9.00;5.88;;;;;;;23.16;23.50;101350.72;5053728;28;20061;-63
2022/04/19 09:51:05;;;;;;;9.10;5.43;;;;;;;23.22;23.93;101348.72;5053522;28;20040;-63
2022/04/19 09:53:40;;;;;;;8.50;5.20;;;;;;;23.43;23.05;101355.19;5053479;28;20040;-63
2022/04/19 09:56:17;;;;;;;7.97;5.13;;;;;;;23.71;23.22;101351.53;5053594;28;20517;-63
2022/04/19 09:58:48;;;;;;;9.48;5.20;;;;;;;23.48;22.93;101347.81;5053560;28;20033;-63
2022/04/19 10:09:33;;;;;;;11.82;6.22;;;;;;;23.38;22.96;101349.09;5053217;28;20057;-63
2022/04/19 10:12:00;;;;;;;8.75;5.30;;;;;;;23.63;23.27;101335.59;5052992;28;20075;-62
2022/04/19 10:14:26;;;;;;;10.52;5.28;;;;;;;23.79;23.17;101356.69;5052371;28;20536;-62
2022/04/19 10:16:53;;;;;;;8.95;5.55;;;;;;;23.99;21.73;101349.63;5053112;28;20025;-63
2022/04/19 10:19:19;;;;;;;8.55;5.70;;;;;;;23.97;22.28;101347.91;5053038;28;20025;-62
2022/04/19 10:21:46;;;;;;;10.10;6.30;;;;;;;23.81;22.63;101352.09;5053038;28;20021;-63
2022/04/19 10:24:12;;;;;;;9.77;5.82;;;;;;;23.64;22.87;101333.75;5053205;28;20655;-63
2022/04/19 10:26:48;;;;;;;10.35;6.10;;;;;;;23.71;23.57;101343.44;5052893;28;20478;-63
2022/04/19 10:29:21;;;;;;;9.10;6.28;;;;;;;24.00;23.61;101339.69;5052926;28;20021;-63
2022/04/19 10:31:58;;;;;;;9.95;6.15;;;;;;;24.58;23.30;101345.59;5052497;28;20044;-63
2022/04/19 10:34:29;;;;;;;8.63;6.13;;;;;;;24.72;21.99;101340.53;5052754;28;20104;-63
2022/04/19 10:36:57;;;;;;;11.52;6.10;;;;;;;24.58;22.07;101342.91;5052920;28;20474;-63
2022/04/19 10:39:25;;;;;;;9.73;6.15;;;;;;;24.68;21.62;101343.41;5052692;28;20067;-63
2022/04/19 10:41:56;;;;;;;10.43;6.50;;;;;;;24.59;22.09;101341.09;5052538;28;20048;-63
2022/04/19 10:44:23;;;;;;;10.80;6.28;;;;;;;24.68;22.22;101332.59;5052929;28;20033;-63
2022/04/19 10:47:15;;;;;;;11.55;6.40;;;;;;;25.06;22.44;101327.44;5052365;28;20082;-63
2022/04/19 10:49:50;;;;;;;11.63;6.07;;;;;;;25.25;22.26;101335.69;5052585;28;20037;-63
2022/04/19 10:52:37;;;;;;;14.18;5.60;;;;;;;25.53;21.59;101322.75;5052599;28;20037;-63
2022/04/19 10:55:08;;;;;;;9.93;5.57;;;;;;;25.72;20.07;101326.38;5052532;28;20094;-63
2022/04/19 11:00:33;;;;;;;9.93;5.88;;;;;;;25.92;20.26;101317.38;5052759;28;20063;-63
2022/04/19 11:03:06;;;;;;;10.88;6.55;;;;;;;25.41;21.37;101310.63;5052441;28;20032;-63
2022/04/19 11:05:41;;;;;;;12.13;6.35;;;;;;;25.44;21.36;101310.50;5052454;28;20446;-63
2022/04/19 11:08:24;;;;;;;10.55;5.82;;;;;;;25.83;20.87;101308.81;5052366;28;20044;-63
2022/04/19 11:10:51;;;;;;;9.43;5.95;;;;;;;26.02;19.74;101315.13;5052314;28;20037;-63
2022/04/19 11:13:19;;;;;;;10.05;5.35;;;;;;;26.02;19.39;101301.59;5052231;28;20039;-63
2022/04/19 11:15:58;;;;;;;9.35;5.50;;;;;;;26.02;19.74;101301.59;5050952;28;20067;-63
2022/04/19 11:18:33;;;;;;;10.80;5.57;;;;;;;26.07;20.24;101301.38;5052224;28;20439;-63
2022/04/19 11:21:02;;;;;;;8.93;5.80;;;;;;;26.13;20.52;101301.09;5052292;28;20391;-63
2022/04/19 11:23:31;;;;;;;8.93;5.60;;;;;;;26.32;19.72;101299.25;5052115;28;20029;-63
2022/04/19 11:25:57;;;;;;;12.98;6.07;;;;;;;25.92;20.10;101298.44;5055669;28;20099;-63
2022/04/19 11:28:28;;;;;;;11.52;5.68;;;;;;;26.06;20.04;101303.19;5056319;28;20035;-63
2022/04/19 11:30:57;;;;;;;10.70;6.07;;;;;;;25.96;19.35;101291.94;5055932;28;20416;-63
2022/04/19 11:33:23;;;;;;;8.60;5.45;;;;;;;26.07;19.08;101293.25;5055984;28;20071;-63
2022/04/19 11:36:00;;;;;;;8.95;5.35;;;;;;;25.91;19.74;101291.25;5055180;28;20466;-63
2022/04/19 11:38:28;;;;;;;12.27;5.63;;;;;;;25.67;20.30;101295.91;5055599;28;20028;-63
2022/04/19 11:49:09;;;;;;;10.07;6.10;;;;;;;26.00;20.43;101289.97;5055994;28;20087;-63
2022/04/19 11:51:36;;;;;;;10.73;6.07;;;;;;;26.09;19.63;101289.53;5055605;28;20025;-63
2022/04/19 11:54:05;;;;;;;9.20;5.72;;;;;;;26.25;19.94;101276.13;5055953;28;20104;-63
2022/04/19 11:56:31;;;;;;;8.40;5.32;;;;;;;26.15;19.35;101286.50;5055617;28;20025;-63
2022/04/19 11:58:59;;;;;;;12.63;5.13;;;;;;;26.31;19.44;101289.38;5055797;28;20025;-63